sensor_id;sensor_type;location;lat;lon;timestamp;P1;durP1;ratioP1;P2;durP2;ratioP2
16504;SDS011;8365;51.030;4.696;2022-11-11T00:02:11;14.27;;;11.10;;
16504;SDS011;8365;51.030;4.696;2022-11-11T00:04:41;12.33;;;10.60;;
16504;SDS011;8365;51.030;4.696;2022-11-11T00:07:12;13.90;;;11.37;;
16504;SDS011;8365;51.030;4.696;2022-11-11T00:09:42;14.10;;;10.93;;
16504;SDS011;8365;51.030;4.696;2022-11-11T00:12:13;13.20;;;10.37;;
16504;SDS011;8365;51.030;4.696;2022-11-11T00:14:43;14.23;;;10.43;;
16504;SDS011;8365;51.030;4.696;2022-11-11T00:17:16;12.67;;;10.73;;
16504;SDS011;8365;51.030;4.696;2022-11-11T00:20:07;11.73;;;10.53;;
16504;SDS011;8365;51.030;4.696;2022-11-11T00:22:57;12.80;;;10.87;;
16504;SDS011;8365;51.030;4.696;2022-11-11T00:25:50;14.60;;;11.10;;
16504;SDS011;8365;51.030;4.696;2022-11-11T00:28:21;12.53;;;10.67;;
16504;SDS011;8365;51.030;4.696;2022-11-11T00:30:59;13.33;;;10.80;;
16504;SDS011;8365;51.030;4.696;2022-11-11T00:33:31;13.23;;;11.10;;
16504;SDS011;8365;51.030;4.696;2022-11-11T00:36:01;15.57;;;10.13;;
16504;SDS011;8365;51.030;4.696;2022-11-11T00:38:32;17.23;;;10.87;;
16504;SDS011;8365;51.030;4.696;2022-11-11T00:41:16;12.87;;;10.23;;
16504;SDS011;8365;51.030;4.696;2022-11-11T00:43:48;11.83;;;10.33;;
16504;SDS011;8365;51.030;4.696;2022-11-11T00:46:19;12.33;;;10.30;;
16504;SDS011;8365;51.030;4.696;2022-11-11T00:49:08;14.50;;;10.40;;
16504;SDS011;8365;51.030;4.696;2022-11-11T00:51:57;11.83;;;10.23;;
16504;SDS011;8365;51.030;4.696;2022-11-11T00:54:27;11.53;;;9.60;;
16504;SDS011;8365;51.030;4.696;2022-11-11T00:57:00;12.27;;;10.10;;
16504;SDS011;8365;51.030;4.696;2022-11-11T00:59:30;13.90;;;10.00;;
16504;SDS011;8365;51.030;4.696;2022-11-11T01:02:03;14.43;;;10.37;;
16504;SDS011;8365;51.030;4.696;2022-11-11T01:04:34;11.27;;;10.07;;
16504;SDS011;8365;51.030;4.696;2022-11-11T01:07:04;11.60;;;8.97;;
16504;SDS011;8365;51.030;4.696;2022-11-11T01:09:34;11.07;;;9.97;;
16504;SDS011;8365;51.030;4.696;2022-11-11T01:12:05;13.20;;;10.27;;
16504;SDS011;8365;51.030;4.696;2022-11-11T01:14:35;14.57;;;10.13;;
16504;SDS011;8365;51.030;4.696;2022-11-11T01:17:06;12.53;;;9.17;;
16504;SDS011;8365;51.030;4.696;2022-11-11T01:19:38;12.67;;;9.70;;
16504;SDS011;8365;51.030;4.696;2022-11-11T01:22:09;10.90;;;9.60;;
16504;SDS011;8365;51.030;4.696;2022-11-11T01:24:39;11.97;;;8.40;;
16504;SDS011;8365;51.030;4.696;2022-11-11T01:27:09;12.47;;;8.97;;
16504;SDS011;8365;51.030;4.696;2022-11-11T01:29:40;11.70;;;9.03;;
16504;SDS011;8365;51.030;4.696;2022-11-11T01:32:10;12.20;;;9.07;;
16504;SDS011;8365;51.030;4.696;2022-11-11T01:34:41;10.07;;;8.53;;
16504;SDS011;8365;51.030;4.696;2022-11-11T01:37:11;11.20;;;9.07;;
16504;SDS011;8365;51.030;4.696;2022-11-11T01:39:44;9.63;;;8.43;;
16504;SDS011;8365;51.030;4.696;2022-11-11T01:42:14;10.67;;;9.33;;
16504;SDS011;8365;51.030;4.696;2022-11-11T01:44:46;9.33;;;8.40;;
16504;SDS011;8365;51.030;4.696;2022-11-11T01:47:17;11.53;;;8.43;;
16504;SDS011;8365;51.030;4.696;2022-11-11T01:49:50;10.80;;;8.97;;
16504;SDS011;8365;51.030;4.696;2022-11-11T01:52:30;12.13;;;8.63;;
16504;SDS011;8365;51.030;4.696;2022-11-11T01:57:37;10.57;;;9.27;;
16504;SDS011;8365;51.030;4.696;2022-11-11T02:00:20;10.57;;;9.43;;
16504;SDS011;8365;51.030;4.696;2022-11-11T02:02:56;11.30;;;9.27;;
16504;SDS011;8365;51.030;4.696;2022-11-11T02:05:29;12.70;;;9.47;;
16504;SDS011;8365;51.030;4.696;2022-11-11T02:08:15;11.20;;;9.07;;
16504;SDS011;8365;51.030;4.696;2022-11-11T02:13:39;12.70;;;8.80;;
16504;SDS011;8365;51.030;4.696;2022-11-11T02:16:47;12.40;;;8.70;;
16504;SDS011;8365;51.030;4.696;2022-11-11T02:19:19;11.20;;;9.13;;
16504;SDS011;8365;51.030;4.696;2022-11-11T02:21:56;15.50;;;9.80;;
16504;SDS011;8365;51.030;4.696;2022-11-11T02:24:30;10.60;;;9.50;;
16504;SDS011;8365;51.030;4.696;2022-11-11T02:27:03;11.80;;;9.60;;
16504;SDS011;8365;51.030;4.696;2022-11-11T02:29:37;13.27;;;9.10;;
16504;SDS011;8365;51.030;4.696;2022-11-11T02:32:09;13.80;;;10.27;;
16504;SDS011;8365;51.030;4.696;2022-11-11T02:34:39;13.90;;;9.73;;
16504;SDS011;8365;51.030;4.696;2022-11-11T02:37:10;12.47;;;10.30;;
16504;SDS011;8365;51.030;4.696;2022-11-11T02:39:42;13.67;;;10.10;;
16504;SDS011;8365;51.030;4.696;2022-11-11T02:42:14;11.83;;;9.47;;
16504;SDS011;8365;51.030;4.696;2022-11-11T02:44:47;12.10;;;10.17;;
16504;SDS011;8365;51.030;4.696;2022-11-11T02:47:17;14.20;;;10.07;;
16504;SDS011;8365;51.030;4.696;2022-11-11T02:49:48;13.40;;;10.13;;
16504;SDS011;8365;51.030;4.696;2022-11-11T02:52:20;11.47;;;9.67;;
16504;SDS011;8365;51.030;4.696;2022-11-11T02:54:51;13.13;;;9.83;;
16504;SDS011;8365;51.030;4.696;2022-11-11T02:57:21;11.80;;;9.63;;
16504;SDS011;8365;51.030;4.696;2022-11-11T02:59:52;13.43;;;9.43;;
16504;SDS011;8365;51.030;4.696;2022-11-11T03:02:22;11.87;;;9.23;;
16504;SDS011;8365;51.030;4.696;2022-11-11T03:04:56;11.90;;;9.87;;
16504;SDS011;8365;51.030;4.696;2022-11-11T03:07:27;10.67;;;9.43;;
16504;SDS011;8365;51.030;4.696;2022-11-11T03:09:57;13.67;;;10.83;;
16504;SDS011;8365;51.030;4.696;2022-11-11T03:12:28;11.63;;;9.40;;
16504;SDS011;8365;51.030;4.696;2022-11-11T03:14:58;10.70;;;9.57;;
16504;SDS011;8365;51.030;4.696;2022-11-11T03:17:28;13.63;;;10.27;;
16504;SDS011;8365;51.030;4.696;2022-11-11T03:20:09;12.03;;;9.27;;
16504;SDS011;8365;51.030;4.696;2022-11-11T03:23:06;12.83;;;9.90;;
16504;SDS011;8365;51.030;4.696;2022-11-11T03:25:46;13.47;;;10.43;;
16504;SDS011;8365;51.030;4.696;2022-11-11T03:28:18;17.47;;;10.90;;
16504;SDS011;8365;51.030;4.696;2022-11-11T03:30:50;13.43;;;9.73;;
16504;SDS011;8365;51.030;4.696;2022-11-11T03:33:23;12.37;;;11.07;;
16504;SDS011;8365;51.030;4.696;2022-11-11T03:35:53;13.43;;;10.37;;
16504;SDS011;8365;51.030;4.696;2022-11-11T03:38:23;15.27;;;10.27;;
16504;SDS011;8365;51.030;4.696;2022-11-11T03:40:54;13.00;;;10.67;;
16504;SDS011;8365;51.030;4.696;2022-11-11T03:43:27;11.80;;;10.20;;
16504;SDS011;8365;51.030;4.696;2022-11-11T03:46:00;12.60;;;10.73;;
16504;SDS011;8365;51.030;4.696;2022-11-11T03:48:32;11.57;;;10.37;;
16504;SDS011;8365;51.030;4.696;2022-11-11T03:51:03;14.93;;;10.47;;
16504;SDS011;8365;51.030;4.696;2022-11-11T03:53:33;13.87;;;11.10;;
16504;SDS011;8365;51.030;4.696;2022-11-11T03:56:06;14.03;;;10.67;;
16504;SDS011;8365;51.030;4.696;2022-11-11T03:58:39;13.57;;;10.73;;
16504;SDS011;8365;51.030;4.696;2022-11-11T04:01:10;13.10;;;9.80;;
16504;SDS011;8365;51.030;4.696;2022-11-11T04:04:00;11.73;;;10.50;;
16504;SDS011;8365;51.030;4.696;2022-11-11T04:06:49;11.70;;;10.33;;
16504;SDS011;8365;51.030;4.696;2022-11-11T04:09:38;13.13;;;10.97;;
16504;SDS011;8365;51.030;4.696;2022-11-11T04:12:27;13.40;;;10.00;;
16504;SDS011;8365;51.030;4.696;2022-11-11T04:14:59;11.63;;;9.73;;
16504;SDS011;8365;51.030;4.696;2022-11-11T04:17:47;14.37;;;9.67;;
16504;SDS011;8365;51.030;4.696;2022-11-11T04:20:18;12.87;;;9.57;;
16504;SDS011;8365;51.030;4.696;2022-11-11T04:23:07;12.73;;;10.10;;
16504;SDS011;8365;51.030;4.696;2022-11-11T04:25:37;14.00;;;10.27;;
16504;SDS011;8365;51.030;4.696;2022-11-11T04:28:19;13.87;;;10.17;;
16504;SDS011;8365;51.030;4.696;2022-11-11T04:31:08;11.40;;;9.80;;
16504;SDS011;8365;51.030;4.696;2022-11-11T04:33:39;14.37;;;9.83;;
16504;SDS011;8365;51.030;4.696;2022-11-11T04:36:09;12.77;;;10.40;;
16504;SDS011;8365;51.030;4.696;2022-11-11T04:38:40;11.40;;;10.07;;
16504;SDS011;8365;51.030;4.696;2022-11-11T04:41:29;11.03;;;9.03;;
16504;SDS011;8365;51.030;4.696;2022-11-11T04:43:59;12.03;;;9.70;;
16504;SDS011;8365;51.030;4.696;2022-11-11T04:46:48;19.27;;;10.50;;
16504;SDS011;8365;51.030;4.696;2022-11-11T04:49:19;14.63;;;9.93;;
16504;SDS011;8365;51.030;4.696;2022-11-11T04:51:49;13.07;;;9.77;;
16504;SDS011;8365;51.030;4.696;2022-11-11T04:54:38;12.27;;;9.30;;
16504;SDS011;8365;51.030;4.696;2022-11-11T04:57:29;10.50;;;9.40;;
16504;SDS011;8365;51.030;4.696;2022-11-11T04:59:59;12.73;;;9.73;;
16504;SDS011;8365;51.030;4.696;2022-11-11T05:02:30;13.30;;;10.10;;
16504;SDS011;8365;51.030;4.696;2022-11-11T05:05:19;11.53;;;9.27;;
16504;SDS011;8365;51.030;4.696;2022-11-11T05:07:49;12.67;;;9.43;;
16504;SDS011;8365;51.030;4.696;2022-11-11T05:10:39;12.77;;;9.40;;
16504;SDS011;8365;51.030;4.696;2022-11-11T05:13:09;13.70;;;9.40;;
16504;SDS011;8365;51.030;4.696;2022-11-11T05:15:58;13.80;;;9.43;;
16504;SDS011;8365;51.030;4.696;2022-11-11T05:18:47;11.83;;;9.17;;
16504;SDS011;8365;51.030;4.696;2022-11-11T05:21:36;15.70;;;9.87;;
16504;SDS011;8365;51.030;4.696;2022-11-11T05:24:06;14.30;;;9.33;;
16504;SDS011;8365;51.030;4.696;2022-11-11T05:26:55;12.73;;;9.37;;
16504;SDS011;8365;51.030;4.696;2022-11-11T05:29:26;12.97;;;9.13;;
16504;SDS011;8365;51.030;4.696;2022-11-11T05:31:56;13.13;;;9.70;;
16504;SDS011;8365;51.030;4.696;2022-11-11T05:34:26;11.93;;;9.93;;
16504;SDS011;8365;51.030;4.696;2022-11-11T05:36:57;14.13;;;10.73;;
16504;SDS011;8365;51.030;4.696;2022-11-11T05:39:27;13.47;;;9.97;;
16504;SDS011;8365;51.030;4.696;2022-11-11T05:41:58;12.70;;;10.73;;
16504;SDS011;8365;51.030;4.696;2022-11-11T05:44:28;14.37;;;10.33;;
16504;SDS011;8365;51.030;4.696;2022-11-11T05:46:59;13.37;;;10.57;;
16504;SDS011;8365;51.030;4.696;2022-11-11T05:49:29;13.10;;;10.60;;
16504;SDS011;8365;51.030;4.696;2022-11-11T05:52:00;15.23;;;11.17;;
16504;SDS011;8365;51.030;4.696;2022-11-11T05:54:31;16.37;;;11.60;;
16504;SDS011;8365;51.030;4.696;2022-11-11T05:57:01;16.10;;;11.73;;
16504;SDS011;8365;51.030;4.696;2022-11-11T05:59:34;16.10;;;12.07;;
16504;SDS011;8365;51.030;4.696;2022-11-11T06:02:05;16.53;;;12.13;;
16504;SDS011;8365;51.030;4.696;2022-11-11T06:04:35;17.83;;;12.70;;
16504;SDS011;8365;51.030;4.696;2022-11-11T06:07:05;16.97;;;12.47;;
16504;SDS011;8365;51.030;4.696;2022-11-11T06:09:36;14.20;;;12.30;;
16504;SDS011;8365;51.030;4.696;2022-11-11T06:12:06;20.37;;;13.03;;
16504;SDS011;8365;51.030;4.696;2022-11-11T06:14:37;13.67;;;12.27;;
16504;SDS011;8365;51.030;4.696;2022-11-11T06:17:07;17.33;;;12.90;;
16504;SDS011;8365;51.030;4.696;2022-11-11T06:19:40;15.17;;;12.63;;
16504;SDS011;8365;51.030;4.696;2022-11-11T06:22:10;16.67;;;12.63;;
16504;SDS011;8365;51.030;4.696;2022-11-11T06:24:41;18.73;;;13.30;;
16504;SDS011;8365;51.030;4.696;2022-11-11T06:27:11;14.63;;;12.07;;
16504;SDS011;8365;51.030;4.696;2022-11-11T06:29:41;18.83;;;13.80;;
16504;SDS011;8365;51.030;4.696;2022-11-11T06:32:12;18.03;;;13.90;;
16504;SDS011;8365;51.030;4.696;2022-11-11T06:34:42;20.83;;;13.67;;
16504;SDS011;8365;51.030;4.696;2022-11-11T06:37:13;17.83;;;13.40;;
16504;SDS011;8365;51.030;4.696;2022-11-11T06:39:43;17.40;;;12.83;;
16504;SDS011;8365;51.030;4.696;2022-11-11T06:42:13;18.63;;;13.87;;
16504;SDS011;8365;51.030;4.696;2022-11-11T06:44:44;18.77;;;13.03;;
16504;SDS011;8365;51.030;4.696;2022-11-11T06:47:16;16.97;;;13.53;;
16504;SDS011;8365;51.030;4.696;2022-11-11T06:49:47;19.17;;;13.30;;
16504;SDS011;8365;51.030;4.696;2022-11-11T06:52:17;20.10;;;13.07;;
16504;SDS011;8365;51.030;4.696;2022-11-11T06:54:48;17.70;;;13.20;;
16504;SDS011;8365;51.030;4.696;2022-11-11T06:57:21;15.70;;;12.93;;
16504;SDS011;8365;51.030;4.696;2022-11-11T06:59:52;16.43;;;12.73;;
16504;SDS011;8365;51.030;4.696;2022-11-11T07:02:22;16.03;;;13.40;;
16504;SDS011;8365;51.030;4.696;2022-11-11T07:04:53;18.33;;;14.00;;
16504;SDS011;8365;51.030;4.696;2022-11-11T07:07:25;15.50;;;13.57;;
16504;SDS011;8365;51.030;4.696;2022-11-11T07:09:57;15.57;;;12.10;;
16504;SDS011;8365;51.030;4.696;2022-11-11T07:12:27;19.63;;;12.80;;
16504;SDS011;8365;51.030;4.696;2022-11-11T07:14:59;17.47;;;13.13;;
16504;SDS011;8365;51.030;4.696;2022-11-11T07:17:29;16.87;;;13.50;;
16504;SDS011;8365;51.030;4.696;2022-11-11T07:19:59;16.37;;;12.37;;
16504;SDS011;8365;51.030;4.696;2022-11-11T07:22:32;15.33;;;12.33;;
16504;SDS011;8365;51.030;4.696;2022-11-11T07:25:05;15.90;;;12.33;;
16504;SDS011;8365;51.030;4.696;2022-11-11T07:27:36;16.07;;;12.20;;
16504;SDS011;8365;51.030;4.696;2022-11-11T07:30:13;13.87;;;11.73;;
16504;SDS011;8365;51.030;4.696;2022-11-11T07:32:47;17.10;;;12.63;;
16504;SDS011;8365;51.030;4.696;2022-11-11T07:35:19;14.77;;;12.00;;
16504;SDS011;8365;51.030;4.696;2022-11-11T07:37:50;15.53;;;12.00;;
16504;SDS011;8365;51.030;4.696;2022-11-11T07:40:21;19.90;;;12.73;;
16504;SDS011;8365;51.030;4.696;2022-11-11T07:42:51;19.67;;;12.77;;
16504;SDS011;8365;51.030;4.696;2022-11-11T07:45:21;17.33;;;13.60;;
16504;SDS011;8365;51.030;4.696;2022-11-11T07:47:52;15.17;;;12.50;;
16504;SDS011;8365;51.030;4.696;2022-11-11T07:50:22;16.13;;;12.43;;
16504;SDS011;8365;51.030;4.696;2022-11-11T07:52:53;15.73;;;11.93;;
16504;SDS011;8365;51.030;4.696;2022-11-11T07:55:23;15.67;;;11.97;;
16504;SDS011;8365;51.030;4.696;2022-11-11T07:57:53;15.40;;;12.13;;
16504;SDS011;8365;51.030;4.696;2022-11-11T08:00:24;15.70;;;12.63;;
16504;SDS011;8365;51.030;4.696;2022-11-11T08:02:54;17.33;;;12.07;;
16504;SDS011;8365;51.030;4.696;2022-11-11T08:05:25;16.97;;;11.90;;
16504;SDS011;8365;51.030;4.696;2022-11-11T08:07:58;19.80;;;12.03;;
16504;SDS011;8365;51.030;4.696;2022-11-11T08:10:35;16.50;;;12.60;;
16504;SDS011;8365;51.030;4.696;2022-11-11T08:13:05;17.10;;;11.50;;
16504;SDS011;8365;51.030;4.696;2022-11-11T08:15:57;15.13;;;11.40;;
16504;SDS011;8365;51.030;4.696;2022-11-11T08:18:27;15.37;;;12.67;;
16504;SDS011;8365;51.030;4.696;2022-11-11T08:20:58;13.87;;;11.10;;
16504;SDS011;8365;51.030;4.696;2022-11-11T08:23:28;18.83;;;11.53;;
16504;SDS011;8365;51.030;4.696;2022-11-11T08:26:03;15.53;;;11.57;;
16504;SDS011;8365;51.030;4.696;2022-11-11T08:28:34;14.87;;;11.53;;
16504;SDS011;8365;51.030;4.696;2022-11-11T08:31:05;14.20;;;10.93;;
16504;SDS011;8365;51.030;4.696;2022-11-11T08:33:35;13.23;;;10.53;;
16504;SDS011;8365;51.030;4.696;2022-11-11T08:36:06;13.57;;;10.53;;
16504;SDS011;8365;51.030;4.696;2022-11-11T08:38:37;14.53;;;10.50;;
16504;SDS011;8365;51.030;4.696;2022-11-11T08:41:09;15.07;;;10.43;;
16504;SDS011;8365;51.030;4.696;2022-11-11T08:43:39;14.80;;;10.13;;
16504;SDS011;8365;51.030;4.696;2022-11-11T08:46:10;14.53;;;10.57;;
16504;SDS011;8365;51.030;4.696;2022-11-11T08:48:41;12.10;;;10.47;;
16504;SDS011;8365;51.030;4.696;2022-11-11T08:51:11;12.83;;;11.03;;
16504;SDS011;8365;51.030;4.696;2022-11-11T08:53:42;14.97;;;10.13;;
16504;SDS011;8365;51.030;4.696;2022-11-11T08:56:12;11.33;;;9.33;;
16504;SDS011;8365;51.030;4.696;2022-11-11T08:58:43;12.87;;;9.83;;
16504;SDS011;8365;51.030;4.696;2022-11-11T09:01:13;10.37;;;9.00;;
16504;SDS011;8365;51.030;4.696;2022-11-11T09:03:47;11.53;;;9.43;;
16504;SDS011;8365;51.030;4.696;2022-11-11T09:06:18;11.90;;;9.30;;
16504;SDS011;8365;51.030;4.696;2022-11-11T09:08:48;12.17;;;8.90;;
16504;SDS011;8365;51.030;4.696;2022-11-11T09:11:19;12.13;;;9.60;;
16504;SDS011;8365;51.030;4.696;2022-11-11T09:13:49;11.53;;;8.93;;
16504;SDS011;8365;51.030;4.696;2022-11-11T09:16:20;10.60;;;9.47;;
16504;SDS011;8365;51.030;4.696;2022-11-11T09:18:50;10.83;;;9.13;;
16504;SDS011;8365;51.030;4.696;2022-11-11T09:21:21;9.30;;;7.63;;
16504;SDS011;8365;51.030;4.696;2022-11-11T09:23:53;11.63;;;9.17;;
16504;SDS011;8365;51.030;4.696;2022-11-11T09:26:23;12.23;;;8.90;;
16504;SDS011;8365;51.030;4.696;2022-11-11T09:28:53;9.93;;;8.20;;
16504;SDS011;8365;51.030;4.696;2022-11-11T09:31:24;10.27;;;8.30;;
16504;SDS011;8365;51.030;4.696;2022-11-11T09:33:54;9.60;;;7.67;;
16504;SDS011;8365;51.030;4.696;2022-11-11T09:36:25;11.23;;;7.83;;
16504;SDS011;8365;51.030;4.696;2022-11-11T09:38:55;10.07;;;8.00;;
16504;SDS011;8365;51.030;4.696;2022-11-11T09:41:32;10.27;;;7.67;;
16504;SDS011;8365;51.030;4.696;2022-11-11T09:44:08;8.30;;;7.10;;
16504;SDS011;8365;51.030;4.696;2022-11-11T09:47:17;12.23;;;7.67;;
16504;SDS011;8365;51.030;4.696;2022-11-11T09:49:58;8.93;;;7.40;;
16504;SDS011;8365;51.030;4.696;2022-11-11T09:55:21;8.37;;;7.27;;
16504;SDS011;8365;51.030;4.696;2022-11-11T09:57:56;7.90;;;7.07;;
16504;SDS011;8365;51.030;4.696;2022-11-11T10:00:34;9.63;;;7.03;;
16504;SDS011;8365;51.030;4.696;2022-11-11T10:05:45;7.60;;;6.50;;
16504;SDS011;8365;51.030;4.696;2022-11-11T10:08:33;7.73;;;6.20;;
16504;SDS011;8365;51.030;4.696;2022-11-11T10:11:12;9.50;;;6.80;;
16504;SDS011;8365;51.030;4.696;2022-11-11T10:13:51;7.57;;;6.00;;
16504;SDS011;8365;51.030;4.696;2022-11-11T10:21:50;7.40;;;6.37;;
16504;SDS011;8365;51.030;4.696;2022-11-11T10:24:27;7.80;;;6.27;;
16504;SDS011;8365;51.030;4.696;2022-11-11T10:27:04;6.97;;;5.90;;
16504;SDS011;8365;51.030;4.696;2022-11-11T10:29:44;7.50;;;6.17;;
16504;SDS011;8365;51.030;4.696;2022-11-11T10:34:47;5.37;;;4.73;;
16504;SDS011;8365;51.030;4.696;2022-11-11T10:37:18;5.57;;;4.73;;
16504;SDS011;8365;51.030;4.696;2022-11-11T10:42:22;5.10;;;4.10;;
16504;SDS011;8365;51.030;4.696;2022-11-11T10:45:02;4.47;;;3.83;;
16504;SDS011;8365;51.030;4.696;2022-11-11T10:48:02;5.90;;;3.80;;
16504;SDS011;8365;51.030;4.696;2022-11-11T10:50:42;6.97;;;4.20;;
16504;SDS011;8365;51.030;4.696;2022-11-11T10:53:41;4.30;;;3.30;;
16504;SDS011;8365;51.030;4.696;2022-11-11T10:56:27;3.70;;;3.40;;
16504;SDS011;8365;51.030;4.696;2022-11-11T11:05:10;4.05;;;3.33;;
16504;SDS011;8365;51.030;4.696;2022-11-11T11:07:50;3.15;;;2.85;;
16504;SDS011;8365;51.030;4.696;2022-11-11T11:10:34;4.25;;;2.90;;
16504;SDS011;8365;51.030;4.696;2022-11-11T11:16:11;3.08;;;2.70;;
16504;SDS011;8365;51.030;4.696;2022-11-11T11:19:31;3.22;;;2.70;;
16504;SDS011;8365;51.030;4.696;2022-11-11T11:27:00;3.00;;;2.60;;
16504;SDS011;8365;51.030;4.696;2022-11-11T11:29:39;3.30;;;2.60;;
16504;SDS011;8365;51.030;4.696;2022-11-11T11:32:13;4.00;;;2.72;;
16504;SDS011;8365;51.030;4.696;2022-11-11T11:34:49;3.47;;;2.67;;
16504;SDS011;8365;51.030;4.696;2022-11-11T11:37:25;2.72;;;2.53;;
16504;SDS011;8365;51.030;4.696;2022-11-11T11:40:00;2.65;;;2.40;;
16504;SDS011;8365;51.030;4.696;2022-11-11T11:42:34;3.72;;;3.42;;
16504;SDS011;8365;51.030;4.696;2022-11-11T11:45:25;3.20;;;2.90;;
16504;SDS011;8365;51.030;4.696;2022-11-11T11:56:14;3.25;;;2.00;;
16504;SDS011;8365;51.030;4.696;2022-11-11T11:58:51;2.80;;;2.45;;
16504;SDS011;8365;51.030;4.696;2022-11-11T12:01:31;3.20;;;2.90;;
16504;SDS011;8365;51.030;4.696;2022-11-11T12:05:25;2.05;;;1.88;;
16504;SDS011;8365;51.030;4.696;2022-11-11T12:10:36;3.70;;;2.03;;
16504;SDS011;8365;51.030;4.696;2022-11-11T12:16:05;2.30;;;2.10;;
16504;SDS011;8365;51.030;4.696;2022-11-11T12:39:31;3.83;;;2.15;;
16504;SDS011;8365;51.030;4.696;2022-11-11T12:42:17;2.30;;;2.10;;
16504;SDS011;8365;51.030;4.696;2022-11-11T12:44:54;2.30;;;2.10;;
16504;SDS011;8365;51.030;4.696;2022-11-11T12:47:35;2.80;;;2.05;;
16504;SDS011;8365;51.030;4.696;2022-11-11T12:50:16;4.50;;;1.80;;
16504;SDS011;8365;51.030;4.696;2022-11-11T12:52:57;3.58;;;2.20;;
16504;SDS011;8365;51.030;4.696;2022-11-11T12:58:32;3.30;;;1.73;;
16504;SDS011;8365;51.030;4.696;2022-11-11T13:12:39;2.65;;;2.00;;
16504;SDS011;8365;51.030;4.696;2022-11-11T13:15:16;2.05;;;1.85;;
16504;SDS011;8365;51.030;4.696;2022-11-11T13:17:51;4.85;;;4.55;;
16504;SDS011;8365;51.030;4.696;2022-11-11T13:23:11;2.55;;;1.70;;
16504;SDS011;8365;51.030;4.696;2022-11-11T13:25:46;5.55;;;2.08;;
16504;SDS011;8365;51.030;4.696;2022-11-11T13:28:29;2.50;;;1.80;;
16504;SDS011;8365;51.030;4.696;2022-11-11T13:34:03;2.60;;;2.40;;
16504;SDS011;8365;51.030;4.696;2022-11-11T13:36:40;5.30;;;2.60;;
16504;SDS011;8365;51.030;4.696;2022-11-11T13:41:54;2.67;;;2.17;;
16504;SDS011;8365;51.030;4.696;2022-11-11T13:44:27;3.35;;;2.22;;
16504;SDS011;8365;51.030;4.696;2022-11-11T13:47:05;2.88;;;2.22;;
16504;SDS011;8365;51.030;4.696;2022-11-11T13:49:43;3.00;;;2.60;;
16504;SDS011;8365;51.030;4.696;2022-11-11T13:52:32;3.17;;;2.88;;
16504;SDS011;8365;51.030;4.696;2022-11-11T13:55:06;2.90;;;2.60;;
16504;SDS011;8365;51.030;4.696;2022-11-11T13:57:56;4.95;;;2.90;;
16504;SDS011;8365;51.030;4.696;2022-11-11T14:00:30;1.98;;;1.88;;
16504;SDS011;8365;51.030;4.696;2022-11-11T14:05:46;3.33;;;3.13;;
16504;SDS011;8365;51.030;4.696;2022-11-11T14:13:56;3.55;;;3.10;;
16504;SDS011;8365;51.030;4.696;2022-11-11T14:22:00;3.78;;;3.47;;
16504;SDS011;8365;51.030;4.696;2022-11-11T14:24:34;3.17;;;2.80;;
16504;SDS011;8365;51.030;4.696;2022-11-11T14:29:48;5.65;;;4.80;;
16504;SDS011;8365;51.030;4.696;2022-11-11T14:38:04;5.10;;;3.20;;
16504;SDS011;8365;51.030;4.696;2022-11-11T14:40:46;5.53;;;5.05;;
16504;SDS011;8365;51.030;4.696;2022-11-11T14:43:32;5.40;;;3.65;;
16504;SDS011;8365;51.030;4.696;2022-11-11T14:46:05;5.75;;;3.67;;
16504;SDS011;8365;51.030;4.696;2022-11-11T14:48:53;5.47;;;3.97;;
16504;SDS011;8365;51.030;4.696;2022-11-11T14:51:48;7.28;;;4.70;;
16504;SDS011;8365;51.030;4.696;2022-11-11T14:54:27;8.15;;;5.05;;
16504;SDS011;8365;51.030;4.696;2022-11-11T14:57:03;7.38;;;5.40;;
16504;SDS011;8365;51.030;4.696;2022-11-11T14:59:40;6.15;;;5.55;;
16504;SDS011;8365;51.030;4.696;2022-11-11T15:02:20;5.10;;;3.80;;
16504;SDS011;8365;51.030;4.696;2022-11-11T15:04:56;6.68;;;6.07;;
16504;SDS011;8365;51.030;4.696;2022-11-11T15:10:19;5.40;;;4.87;;
16504;SDS011;8365;51.030;4.696;2022-11-11T15:16:02;4.30;;;3.90;;
16504;SDS011;8365;51.030;4.696;2022-11-11T15:21:35;8.43;;;5.40;;
16504;SDS011;8365;51.030;4.696;2022-11-11T15:24:10;6.67;;;5.43;;
16504;SDS011;8365;51.030;4.696;2022-11-11T15:27:19;12.07;;;6.50;;
16504;SDS011;8365;51.030;4.696;2022-11-11T15:30:33;6.73;;;6.07;;
16504;SDS011;8365;51.030;4.696;2022-11-11T15:33:17;8.80;;;6.63;;
16504;SDS011;8365;51.030;4.696;2022-11-11T15:38:35;13.27;;;8.80;;
16504;SDS011;8365;51.030;4.696;2022-11-11T15:41:10;55.90;;;50.50;;
16504;SDS011;8365;51.030;4.696;2022-11-11T15:43:56;30.03;;;27.07;;
16504;SDS011;8365;51.030;4.696;2022-11-11T15:46:29;15.03;;;13.53;;
16504;SDS011;8365;51.030;4.696;2022-11-11T15:49:00;14.03;;;12.83;;
16504;SDS011;8365;51.030;4.696;2022-11-11T15:51:31;7.83;;;7.03;;
16504;SDS011;8365;51.030;4.696;2022-11-11T15:56:44;12.63;;;8.50;;
16504;SDS011;8365;51.030;4.696;2022-11-11T15:59:15;12.30;;;10.23;;
16504;SDS011;8365;51.030;4.696;2022-11-11T16:01:46;19.13;;;16.67;;
16504;SDS011;8365;51.030;4.696;2022-11-11T16:04:20;13.23;;;11.83;;
16504;SDS011;8365;51.030;4.696;2022-11-11T16:06:53;21.37;;;19.20;;
16504;SDS011;8365;51.030;4.696;2022-11-11T16:09:25;8.03;;;5.63;;
16504;SDS011;8365;51.030;4.696;2022-11-11T16:11:58;8.73;;;7.67;;
16504;SDS011;8365;51.030;4.696;2022-11-11T16:14:35;9.47;;;7.13;;
16504;SDS011;8365;51.030;4.696;2022-11-11T16:17:10;7.83;;;7.03;;
16504;SDS011;8365;51.030;4.696;2022-11-11T16:19:43;9.67;;;6.33;;
16504;SDS011;8365;51.030;4.696;2022-11-11T16:22:18;12.37;;;9.83;;
16504;SDS011;8365;51.030;4.696;2022-11-11T16:24:52;12.33;;;11.03;;
16504;SDS011;8365;51.030;4.696;2022-11-11T16:27:29;16.37;;;10.23;;
16504;SDS011;8365;51.030;4.696;2022-11-11T16:33:17;12.57;;;10.03;;
16504;SDS011;8365;51.030;4.696;2022-11-11T16:36:09;11.90;;;8.27;;
16504;SDS011;8365;51.030;4.696;2022-11-11T16:38:40;24.50;;;20.93;;
16504;SDS011;8365;51.030;4.696;2022-11-11T16:41:29;19.80;;;15.30;;
16504;SDS011;8365;51.030;4.696;2022-11-11T16:44:00;17.83;;;15.40;;
16504;SDS011;8365;51.030;4.696;2022-11-11T16:49:18;13.07;;;9.07;;
16504;SDS011;8365;51.030;4.696;2022-11-11T16:52:08;18.20;;;11.83;;
16504;SDS011;8365;51.030;4.696;2022-11-11T16:54:58;16.93;;;13.43;;
16504;SDS011;8365;51.030;4.696;2022-11-11T16:57:30;13.70;;;9.83;;
16504;SDS011;8365;51.030;4.696;2022-11-11T17:00:04;14.97;;;10.10;;
16504;SDS011;8365;51.030;4.696;2022-11-11T17:02:35;13.40;;;10.07;;
16504;SDS011;8365;51.030;4.696;2022-11-11T17:05:05;16.03;;;13.37;;
16504;SDS011;8365;51.030;4.696;2022-11-11T17:07:40;14.30;;;11.10;;
16504;SDS011;8365;51.030;4.696;2022-11-11T17:12:52;20.50;;;18.37;;
16504;SDS011;8365;51.030;4.696;2022-11-11T17:15:22;18.17;;;15.87;;
16504;SDS011;8365;51.030;4.696;2022-11-11T17:17:53;18.77;;;14.03;;
16504;SDS011;8365;51.030;4.696;2022-11-11T17:20:26;16.87;;;10.53;;
16504;SDS011;8365;51.030;4.696;2022-11-11T17:22:56;18.97;;;10.07;;
16504;SDS011;8365;51.030;4.696;2022-11-11T17:25:27;14.97;;;10.27;;
16504;SDS011;8365;51.030;4.696;2022-11-11T17:27:58;15.17;;;10.50;;
16504;SDS011;8365;51.030;4.696;2022-11-11T17:30:28;15.53;;;11.10;;
16504;SDS011;8365;51.030;4.696;2022-11-11T17:32:59;16.70;;;12.23;;
16504;SDS011;8365;51.030;4.696;2022-11-11T17:35:29;16.30;;;11.73;;
16504;SDS011;8365;51.030;4.696;2022-11-11T17:37:59;14.40;;;11.90;;
16504;SDS011;8365;51.030;4.696;2022-11-11T17:40:30;17.73;;;11.57;;
16504;SDS011;8365;51.030;4.696;2022-11-11T17:43:00;16.80;;;12.07;;
16504;SDS011;8365;51.030;4.696;2022-11-11T17:45:31;15.63;;;11.97;;
16504;SDS011;8365;51.030;4.696;2022-11-11T17:48:01;16.93;;;12.00;;
16504;SDS011;8365;51.030;4.696;2022-11-11T17:50:32;15.40;;;12.93;;
16504;SDS011;8365;51.030;4.696;2022-11-11T17:53:03;14.97;;;12.83;;